Terminal Aerodrome Forecast
Issued by NWS

Home | Current Version | Previous Version | Graphics & Text | Print | Product List | Glossary On
Versions: 1 2 3 4 5 6 7 8 9 10 11 12 13 14 15 16
930
FTUS43 KGRB 011735 AAB
TAFATW
TAF AMD
KATW 011735Z 0118/0218 29010G16KT P6SM SCT015 BKN090
      TEMPO 0118/0121 BKN015
     FM012300 28008KT P6SM BKN020
     FM021600 30008KT P6SM BKN025=

USA.gov is the U.S. government's official web portal to all federal, state and local government web resources and services.